sensor_id;sensor_type;location;lat;lon;timestamp;temperature;humidity
8539;DHT22;4307;53.868;11.680;2022-12-20T00:01:17;6.00;99.90
8539;DHT22;4307;53.868;11.680;2022-12-20T00:03:48;6.10;99.90
8539;DHT22;4307;53.868;11.680;2022-12-20T00:06:15;6.00;99.90
8539;DHT22;4307;53.868;11.680;2022-12-20T00:08:43;6.10;99.90
8539;DHT22;4307;53.868;11.680;2022-12-20T00:11:10;6.10;99.90
8539;DHT22;4307;53.868;11.680;2022-12-20T00:13:38;6.10;99.90
8539;DHT22;4307;53.868;11.680;2022-12-20T00:16:06;6.10;99.90
8539;DHT22;4307;53.868;11.680;2022-12-20T00:18:34;6.10;99.90
8539;DHT22;4307;53.868;11.680;2022-12-20T00:21:02;6.10;99.90
8539;DHT22;4307;53.868;11.680;2022-12-20T00:23:29;6.00;99.90
8539;DHT22;4307;53.868;11.680;2022-12-20T00:26:02;6.00;99.90
8539;DHT22;4307;53.868;11.680;2022-12-20T00:28:29;6.00;99.90
8539;DHT22;4307;53.868;11.680;2022-12-20T00:30:57;6.10;99.90
8539;DHT22;4307;53.868;11.680;2022-12-20T00:33:24;6.10;99.90
8539;DHT22;4307;53.868;11.680;2022-12-20T00:35:50;6.20;99.90
8539;DHT22;4307;53.868;11.680;2022-12-20T00:38:17;6.20;99.90
8539;DHT22;4307;53.868;11.680;2022-12-20T00:40:44;6.20;99.90
8539;DHT22;4307;53.868;11.680;2022-12-20T00:43:12;6.20;99.90
8539;DHT22;4307;53.868;11.680;2022-12-20T00:45:39;6.20;99.90
8539;DHT22;4307;53.868;11.680;2022-12-20T00:48:05;6.10;99.90
8539;DHT22;4307;53.868;11.680;2022-12-20T00:50:32;6.10;99.90
8539;DHT22;4307;53.868;11.680;2022-12-20T00:52:59;6.10;99.90
8539;DHT22;4307;53.868;11.680;2022-12-20T00:55:25;6.00;99.90
8539;DHT22;4307;53.868;11.680;2022-12-20T00:57:52;6.10;99.90
8539;DHT22;4307;53.868;11.680;2022-12-20T01:00:20;6.10;99.90
8539;DHT22;4307;53.868;11.680;2022-12-20T01:02:47;6.10;99.90
8539;DHT22;4307;53.868;11.680;2022-12-20T01:05:13;6.10;99.90
8539;DHT22;4307;53.868;11.680;2022-12-20T01:07:40;6.10;99.90
8539;DHT22;4307;53.868;11.680;2022-12-20T01:10:08;6.10;99.90
8539;DHT22;4307;53.868;11.680;2022-12-20T01:12:35;6.00;99.90
8539;DHT22;4307;53.868;11.680;2022-12-20T01:15:02;6.10;99.90
8539;DHT22;4307;53.868;11.680;2022-12-20T01:17:30;6.10;99.90
8539;DHT22;4307;53.868;11.680;2022-12-20T01:19:57;6.10;99.90
8539;DHT22;4307;53.868;11.680;2022-12-20T01:22:24;6.10;99.90
8539;DHT22;4307;53.868;11.680;2022-12-20T01:24:51;6.10;99.90
8539;DHT22;4307;53.868;11.680;2022-12-20T01:27:17;6.10;99.90
8539;DHT22;4307;53.868;11.680;2022-12-20T01:29:44;6.10;99.90
8539;DHT22;4307;53.868;11.680;2022-12-20T01:32:11;6.10;99.90
8539;DHT22;4307;53.868;11.680;2022-12-20T01:34:39;6.10;99.90
8539;DHT22;4307;53.868;11.680;2022-12-20T01:37:05;6.20;99.90
8539;DHT22;4307;53.868;11.680;2022-12-20T01:39:32;6.20;99.90
8539;DHT22;4307;53.868;11.680;2022-12-20T01:41:59;6.20;99.90
8539;DHT22;4307;53.868;11.680;2022-12-20T01:47:31;6.20;99.90
8539;DHT22;4307;53.868;11.680;2022-12-20T01:50:02;6.20;99.90
8539;DHT22;4307;53.868;11.680;2022-12-20T01:52:33;6.20;99.90
8539;DHT22;4307;53.868;11.680;2022-12-20T01:55:04;6.20;99.90
8539;DHT22;4307;53.868;11.680;2022-12-20T01:57:35;6.20;99.90
8539;DHT22;4307;53.868;11.680;2022-12-20T02:00:04;6.20;99.90
8539;DHT22;4307;53.868;11.680;2022-12-20T02:02:33;6.20;99.90
8539;DHT22;4307;53.868;11.680;2022-12-20T02:05:01;6.20;99.90
8539;DHT22;4307;53.868;11.680;2022-12-20T02:07:30;6.20;99.90
8539;DHT22;4307;53.868;11.680;2022-12-20T02:10:00;6.30;99.90
8539;DHT22;4307;53.868;11.680;2022-12-20T02:12:31;6.30;99.90
8539;DHT22;4307;53.868;11.680;2022-12-20T02:15:09;6.40;99.90
8539;DHT22;4307;53.868;11.680;2022-12-20T02:17:47;6.50;99.90
8539;DHT22;4307;53.868;11.680;2022-12-20T02:20:34;6.50;99.90
8539;DHT22;4307;53.868;11.680;2022-12-20T02:23:21;6.70;99.90
8539;DHT22;4307;53.868;11.680;2022-12-20T02:26:04;6.70;99.90
8539;DHT22;4307;53.868;11.680;2022-12-20T02:28:55;6.70;99.90
8539;DHT22;4307;53.868;11.680;2022-12-20T02:31:36;6.60;99.90
8539;DHT22;4307;53.868;11.680;2022-12-20T02:34:05;6.60;99.90
8539;DHT22;4307;53.868;11.680;2022-12-20T02:36:32;6.50;99.90
8539;DHT22;4307;53.868;11.680;2022-12-20T02:38:59;6.40;99.90
8539;DHT22;4307;53.868;11.680;2022-12-20T02:41:29;6.40;99.90
8539;DHT22;4307;53.868;11.680;2022-12-20T02:44:00;6.30;99.90
8539;DHT22;4307;53.868;11.680;2022-12-20T02:46:48;6.30;99.90
8539;DHT22;4307;53.868;11.680;2022-12-20T02:49:17;6.30;99.90
8539;DHT22;4307;53.868;11.680;2022-12-20T02:51:47;6.30;99.90
8539;DHT22;4307;53.868;11.680;2022-12-20T02:54:16;6.30;99.90
8539;DHT22;4307;53.868;11.680;2022-12-20T02:56:48;6.30;99.90
8539;DHT22;4307;53.868;11.680;2022-12-20T02:59:20;6.30;99.90
8539;DHT22;4307;53.868;11.680;2022-12-20T03:01:50;6.30;99.90
8539;DHT22;4307;53.868;11.680;2022-12-20T03:04:20;6.30;99.90
8539;DHT22;4307;53.868;11.680;2022-12-20T03:06:59;6.40;99.90
8539;DHT22;4307;53.868;11.680;2022-12-20T03:09:26;6.40;99.90
8539;DHT22;4307;53.868;11.680;2022-12-20T03:11:53;6.40;99.90
8539;DHT22;4307;53.868;11.680;2022-12-20T03:14:20;6.30;99.90
8539;DHT22;4307;53.868;11.680;2022-12-20T03:16:48;6.40;99.90
8539;DHT22;4307;53.868;11.680;2022-12-20T03:19:15;6.40;99.90
8539;DHT22;4307;53.868;11.680;2022-12-20T03:21:42;6.40;99.90
8539;DHT22;4307;53.868;11.680;2022-12-20T03:24:09;6.40;99.90
8539;DHT22;4307;53.868;11.680;2022-12-20T03:26:38;6.40;99.90
8539;DHT22;4307;53.868;11.680;2022-12-20T03:29:04;6.40;99.90
8539;DHT22;4307;53.868;11.680;2022-12-20T03:31:31;6.40;99.90
8539;DHT22;4307;53.868;11.680;2022-12-20T03:33:59;6.50;99.90
8539;DHT22;4307;53.868;11.680;2022-12-20T03:36:25;6.50;99.90
8539;DHT22;4307;53.868;11.680;2022-12-20T03:38:53;6.60;99.90
8539;DHT22;4307;53.868;11.680;2022-12-20T03:41:20;6.60;99.90
8539;DHT22;4307;53.868;11.680;2022-12-20T03:43:47;6.70;99.90
8539;DHT22;4307;53.868;11.680;2022-12-20T03:46:14;6.70;99.90
8539;DHT22;4307;53.868;11.680;2022-12-20T03:48:42;6.70;99.90
8539;DHT22;4307;53.868;11.680;2022-12-20T03:51:10;6.80;99.90
8539;DHT22;4307;53.868;11.680;2022-12-20T03:53:36;6.80;99.90
8539;DHT22;4307;53.868;11.680;2022-12-20T03:56:04;6.90;99.90
8539;DHT22;4307;53.868;11.680;2022-12-20T03:58:30;6.90;99.90
8539;DHT22;4307;53.868;11.680;2022-12-20T04:00:57;6.90;99.90
8539;DHT22;4307;53.868;11.680;2022-12-20T04:03:24;7.00;99.90
8539;DHT22;4307;53.868;11.680;2022-12-20T04:05:50;7.00;99.90
8539;DHT22;4307;53.868;11.680;2022-12-20T04:08:18;7.00;99.90
8539;DHT22;4307;53.868;11.680;2022-12-20T04:10:45;6.90;99.90
8539;DHT22;4307;53.868;11.680;2022-12-20T04:13:37;7.00;99.90
8539;DHT22;4307;53.868;11.680;2022-12-20T04:16:04;7.00;99.90
8539;DHT22;4307;53.868;11.680;2022-12-20T04:18:31;7.00;99.90
8539;DHT22;4307;53.868;11.680;2022-12-20T04:20:59;6.90;99.90
8539;DHT22;4307;53.868;11.680;2022-12-20T04:23:27;6.90;99.90
8539;DHT22;4307;53.868;11.680;2022-12-20T04:25:53;6.90;99.90
8539;DHT22;4307;53.868;11.680;2022-12-20T04:28:20;6.90;99.90
8539;DHT22;4307;53.868;11.680;2022-12-20T04:30:46;6.90;99.90
8539;DHT22;4307;53.868;11.680;2022-12-20T04:33:13;6.90;99.90
8539;DHT22;4307;53.868;11.680;2022-12-20T04:35:40;6.90;99.90
8539;DHT22;4307;53.868;11.680;2022-12-20T04:38:06;6.90;99.90
8539;DHT22;4307;53.868;11.680;2022-12-20T04:40:34;6.90;99.90
8539;DHT22;4307;53.868;11.680;2022-12-20T04:43:01;6.90;99.90
8539;DHT22;4307;53.868;11.680;2022-12-20T04:45:28;7.00;99.90
8539;DHT22;4307;53.868;11.680;2022-12-20T04:47:54;7.00;99.90
8539;DHT22;4307;53.868;11.680;2022-12-20T04:50:21;7.00;99.90
8539;DHT22;4307;53.868;11.680;2022-12-20T04:52:47;7.00;99.90
8539;DHT22;4307;53.868;11.680;2022-12-20T04:55:37;7.00;99.90
8539;DHT22;4307;53.868;11.680;2022-12-20T04:58:04;7.00;99.90
8539;DHT22;4307;53.868;11.680;2022-12-20T05:00:31;7.10;99.90
8539;DHT22;4307;53.868;11.680;2022-12-20T05:02:57;7.10;99.90
8539;DHT22;4307;53.868;11.680;2022-12-20T05:05:24;7.10;99.90
8539;DHT22;4307;53.868;11.680;2022-12-20T05:07:52;7.10;99.90
8539;DHT22;4307;53.868;11.680;2022-12-20T05:10:19;7.10;99.90
8539;DHT22;4307;53.868;11.680;2022-12-20T05:12:47;7.20;99.90
8539;DHT22;4307;53.868;11.680;2022-12-20T05:15:14;7.20;99.90
8539;DHT22;4307;53.868;11.680;2022-12-20T05:17:40;7.20;99.90
8539;DHT22;4307;53.868;11.680;2022-12-20T05:20:08;7.20;99.90
8539;DHT22;4307;53.868;11.680;2022-12-20T05:22:34;7.20;99.90
8539;DHT22;4307;53.868;11.680;2022-12-20T05:25:19;7.20;99.90
8539;DHT22;4307;53.868;11.680;2022-12-20T05:28:04;7.20;99.90
8539;DHT22;4307;53.868;11.680;2022-12-20T05:30:31;7.20;99.90
8539;DHT22;4307;53.868;11.680;2022-12-20T05:32:58;7.20;99.90
8539;DHT22;4307;53.868;11.680;2022-12-20T05:35:24;7.20;99.90
8539;DHT22;4307;53.868;11.680;2022-12-20T05:37:51;7.20;99.90
8539;DHT22;4307;53.868;11.680;2022-12-20T05:40:17;7.20;99.90
8539;DHT22;4307;53.868;11.680;2022-12-20T05:42:44;7.30;99.90
8539;DHT22;4307;53.868;11.680;2022-12-20T05:45:12;7.30;99.90
8539;DHT22;4307;53.868;11.680;2022-12-20T05:47:39;7.30;99.90
8539;DHT22;4307;53.868;11.680;2022-12-20T05:50:07;7.30;99.90
8539;DHT22;4307;53.868;11.680;2022-12-20T05:52:34;7.30;99.90
8539;DHT22;4307;53.868;11.680;2022-12-20T05:55:00;7.30;99.90
8539;DHT22;4307;53.868;11.680;2022-12-20T05:57:27;7.40;99.90
8539;DHT22;4307;53.868;11.680;2022-12-20T05:59:54;7.40;99.90
8539;DHT22;4307;53.868;11.680;2022-12-20T06:02:21;7.40;99.90
8539;DHT22;4307;53.868;11.680;2022-12-20T06:04:48;7.40;99.90
8539;DHT22;4307;53.868;11.680;2022-12-20T06:07:15;7.40;99.90
8539;DHT22;4307;53.868;11.680;2022-12-20T06:09:41;7.40;99.90
8539;DHT22;4307;53.868;11.680;2022-12-20T06:12:08;7.40;99.90
8539;DHT22;4307;53.868;11.680;2022-12-20T06:14:35;7.40;99.90
8539;DHT22;4307;53.868;11.680;2022-12-20T06:17:02;7.40;99.90
8539;DHT22;4307;53.868;11.680;2022-12-20T06:19:30;7.50;99.90
8539;DHT22;4307;53.868;11.680;2022-12-20T06:21:56;7.50;99.90
8539;DHT22;4307;53.868;11.680;2022-12-20T06:24:23;7.50;99.90
8539;DHT22;4307;53.868;11.680;2022-12-20T06:26:51;7.40;99.90
8539;DHT22;4307;53.868;11.680;2022-12-20T06:29:18;7.40;99.90
8539;DHT22;4307;53.868;11.680;2022-12-20T06:31:45;7.40;99.90
8539;DHT22;4307;53.868;11.680;2022-12-20T06:34:12;7.40;99.90
8539;DHT22;4307;53.868;11.680;2022-12-20T06:36:40;7.40;99.90
8539;DHT22;4307;53.868;11.680;2022-12-20T06:39:07;7.30;99.90
8539;DHT22;4307;53.868;11.680;2022-12-20T06:41:34;7.30;99.90
8539;DHT22;4307;53.868;11.680;2022-12-20T06:44:00;7.20;99.90
8539;DHT22;4307;53.868;11.680;2022-12-20T06:46:27;7.20;99.90
8539;DHT22;4307;53.868;11.680;2022-12-20T06:48:55;7.20;99.90
8539;DHT22;4307;53.868;11.680;2022-12-20T06:51:22;7.20;99.90
8539;DHT22;4307;53.868;11.680;2022-12-20T06:53:50;7.20;99.90
8539;DHT22;4307;53.868;11.680;2022-12-20T06:56:16;7.10;99.90
8539;DHT22;4307;53.868;11.680;2022-12-20T06:58:44;7.10;99.90
8539;DHT22;4307;53.868;11.680;2022-12-20T07:01:11;7.20;99.90
8539;DHT22;4307;53.868;11.680;2022-12-20T07:03:38;7.10;99.90
8539;DHT22;4307;53.868;11.680;2022-12-20T07:06:05;7.20;99.90
8539;DHT22;4307;53.868;11.680;2022-12-20T07:08:31;7.20;99.90
8539;DHT22;4307;53.868;11.680;2022-12-20T07:11:04;7.20;99.90
8539;DHT22;4307;53.868;11.680;2022-12-20T07:13:31;7.20;99.90
8539;DHT22;4307;53.868;11.680;2022-12-20T07:15:59;7.20;99.90
8539;DHT22;4307;53.868;11.680;2022-12-20T07:18:26;7.20;99.90
8539;DHT22;4307;53.868;11.680;2022-12-20T07:20:53;7.20;99.90
8539;DHT22;4307;53.868;11.680;2022-12-20T07:23:19;7.20;99.90
8539;DHT22;4307;53.868;11.680;2022-12-20T07:25:52;7.20;99.90
8539;DHT22;4307;53.868;11.680;2022-12-20T07:28:21;7.20;99.90
8539;DHT22;4307;53.868;11.680;2022-12-20T07:30:48;7.20;99.90
8539;DHT22;4307;53.868;11.680;2022-12-20T07:33:14;7.20;99.90
8539;DHT22;4307;53.868;11.680;2022-12-20T07:35:41;7.30;99.90
8539;DHT22;4307;53.868;11.680;2022-12-20T07:38:10;7.30;99.90
8539;DHT22;4307;53.868;11.680;2022-12-20T07:40:39;7.30;99.90
8539;DHT22;4307;53.868;11.680;2022-12-20T07:43:05;7.30;99.90
8539;DHT22;4307;53.868;11.680;2022-12-20T07:45:33;7.30;99.90
8539;DHT22;4307;53.868;11.680;2022-12-20T07:48:00;7.30;99.90
8539;DHT22;4307;53.868;11.680;2022-12-20T07:50:27;7.30;99.90
8539;DHT22;4307;53.868;11.680;2022-12-20T07:52:55;7.30;99.90
8539;DHT22;4307;53.868;11.680;2022-12-20T07:55:23;7.30;99.90
8539;DHT22;4307;53.868;11.680;2022-12-20T07:57:52;7.30;99.90
8539;DHT22;4307;53.868;11.680;2022-12-20T08:00:20;7.40;99.90
8539;DHT22;4307;53.868;11.680;2022-12-20T08:02:54;7.40;99.90
8539;DHT22;4307;53.868;11.680;2022-12-20T08:05:21;7.50;99.90
8539;DHT22;4307;53.868;11.680;2022-12-20T08:07:49;7.50;99.90
8539;DHT22;4307;53.868;11.680;2022-12-20T08:10:16;7.50;99.90
8539;DHT22;4307;53.868;11.680;2022-12-20T08:12:44;7.50;99.90
8539;DHT22;4307;53.868;11.680;2022-12-20T08:15:12;7.60;99.90
8539;DHT22;4307;53.868;11.680;2022-12-20T08:17:39;7.60;99.90
8539;DHT22;4307;53.868;11.680;2022-12-20T08:20:08;7.60;99.90
8539;DHT22;4307;53.868;11.680;2022-12-20T08:22:35;7.60;99.90
8539;DHT22;4307;53.868;11.680;2022-12-20T08:25:01;7.60;99.90
8539;DHT22;4307;53.868;11.680;2022-12-20T08:27:29;7.60;99.90
8539;DHT22;4307;53.868;11.680;2022-12-20T08:29:55;7.60;99.90
8539;DHT22;4307;53.868;11.680;2022-12-20T08:32:22;7.60;99.90
8539;DHT22;4307;53.868;11.680;2022-12-20T08:34:49;7.60;99.90
8539;DHT22;4307;53.868;11.680;2022-12-20T08:37:17;7.60;99.90
8539;DHT22;4307;53.868;11.680;2022-12-20T08:39:44;7.60;99.90
8539;DHT22;4307;53.868;11.680;2022-12-20T08:42:11;7.60;99.90
8539;DHT22;4307;53.868;11.680;2022-12-20T08:44:37;7.70;99.90
8539;DHT22;4307;53.868;11.680;2022-12-20T08:47:04;7.60;99.90
8539;DHT22;4307;53.868;11.680;2022-12-20T08:49:31;7.60;99.90
8539;DHT22;4307;53.868;11.680;2022-12-20T08:51:57;7.60;99.90
8539;DHT22;4307;53.868;11.680;2022-12-20T08:54:25;7.60;99.90
8539;DHT22;4307;53.868;11.680;2022-12-20T08:56:52;7.60;99.90
8539;DHT22;4307;53.868;11.680;2022-12-20T08:59:18;7.60;99.90
8539;DHT22;4307;53.868;11.680;2022-12-20T09:01:45;7.60;99.90
8539;DHT22;4307;53.868;11.680;2022-12-20T09:04:12;7.60;99.90
8539;DHT22;4307;53.868;11.680;2022-12-20T09:06:39;7.60;99.90
8539;DHT22;4307;53.868;11.680;2022-12-20T09:09:06;7.60;99.90
8539;DHT22;4307;53.868;11.680;2022-12-20T09:11:34;7.60;99.90
8539;DHT22;4307;53.868;11.680;2022-12-20T09:14:01;7.60;99.90
8539;DHT22;4307;53.868;11.680;2022-12-20T09:16:28;7.60;99.90
8539;DHT22;4307;53.868;11.680;2022-12-20T09:18:57;7.60;99.90
8539;DHT22;4307;53.868;11.680;2022-12-20T09:21:24;7.70;99.90
8539;DHT22;4307;53.868;11.680;2022-12-20T09:23:52;7.70;99.90
8539;DHT22;4307;53.868;11.680;2022-12-20T09:26:20;7.70;99.90
8539;DHT22;4307;53.868;11.680;2022-12-20T09:28:49;7.80;99.90
8539;DHT22;4307;53.868;11.680;2022-12-20T09:31:18;7.80;99.90
8539;DHT22;4307;53.868;11.680;2022-12-20T09:33:45;7.80;99.90
8539;DHT22;4307;53.868;11.680;2022-12-20T09:36:14;7.90;99.90
8539;DHT22;4307;53.868;11.680;2022-12-20T09:38:42;7.90;99.90
8539;DHT22;4307;53.868;11.680;2022-12-20T09:41:19;7.90;99.90
8539;DHT22;4307;53.868;11.680;2022-12-20T09:43:50;7.90;99.90
8539;DHT22;4307;53.868;11.680;2022-12-20T09:46:17;8.00;99.90
8539;DHT22;4307;53.868;11.680;2022-12-20T09:48:45;8.00;99.90
8539;DHT22;4307;53.868;11.680;2022-12-20T09:51:28;8.00;99.90
8539;DHT22;4307;53.868;11.680;2022-12-20T09:54:06;8.10;99.90
8539;DHT22;4307;53.868;11.680;2022-12-20T09:56:35;8.20;99.90
8539;DHT22;4307;53.868;11.680;2022-12-20T09:59:05;8.20;99.90
8539;DHT22;4307;53.868;11.680;2022-12-20T10:01:36;8.20;99.90
8539;DHT22;4307;53.868;11.680;2022-12-20T10:04:06;8.30;99.90
8539;DHT22;4307;53.868;11.680;2022-12-20T10:06:42;8.30;99.90
8539;DHT22;4307;53.868;11.680;2022-12-20T10:09:16;8.30;99.90
8539;DHT22;4307;53.868;11.680;2022-12-20T10:11:57;8.30;99.90
8539;DHT22;4307;53.868;11.680;2022-12-20T10:14:44;8.30;99.90
8539;DHT22;4307;53.868;11.680;2022-12-20T10:17:25;8.30;99.90
8539;DHT22;4307;53.868;11.680;2022-12-20T10:20:03;8.20;99.90
8539;DHT22;4307;53.868;11.680;2022-12-20T10:22:39;8.20;99.90
8539;DHT22;4307;53.868;11.680;2022-12-20T10:25:15;8.30;99.90
8539;DHT22;4307;53.868;11.680;2022-12-20T10:27:43;8.30;99.90
8539;DHT22;4307;53.868;11.680;2022-12-20T10:30:15;8.30;99.90
8539;DHT22;4307;53.868;11.680;2022-12-20T10:32:44;8.30;99.90
8539;DHT22;4307;53.868;11.680;2022-12-20T10:35:23;8.30;99.90
8539;DHT22;4307;53.868;11.680;2022-12-20T10:37:58;8.40;99.90
8539;DHT22;4307;53.868;11.680;2022-12-20T10:40:28;8.40;99.90
8539;DHT22;4307;53.868;11.680;2022-12-20T10:42:55;8.40;99.90
8539;DHT22;4307;53.868;11.680;2022-12-20T10:45:34;8.50;99.90
8539;DHT22;4307;53.868;11.680;2022-12-20T10:48:03;8.50;99.90
8539;DHT22;4307;53.868;11.680;2022-12-20T10:50:31;8.60;99.90
8539;DHT22;4307;53.868;11.680;2022-12-20T10:53:18;8.60;99.90
8539;DHT22;4307;53.868;11.680;2022-12-20T10:55:46;8.70;99.90
8539;DHT22;4307;53.868;11.680;2022-12-20T10:58:15;8.70;99.90
8539;DHT22;4307;53.868;11.680;2022-12-20T11:00:43;8.80;99.90
8539;DHT22;4307;53.868;11.680;2022-12-20T11:03:14;8.90;99.90
8539;DHT22;4307;53.868;11.680;2022-12-20T11:05:53;8.80;99.90
8539;DHT22;4307;53.868;11.680;2022-12-20T11:08:21;8.90;99.90
8539;DHT22;4307;53.868;11.680;2022-12-20T11:10:49;8.90;99.90
8539;DHT22;4307;53.868;11.680;2022-12-20T11:13:21;9.00;99.90
8539;DHT22;4307;53.868;11.680;2022-12-20T11:15:52;9.00;99.90
8539;DHT22;4307;53.868;11.680;2022-12-20T11:18:28;9.10;99.90
8539;DHT22;4307;53.868;11.680;2022-12-20T11:21:06;9.10;99.90
8539;DHT22;4307;53.868;11.680;2022-12-20T11:23:39;9.10;99.90
8539;DHT22;4307;53.868;11.680;2022-12-20T11:26:20;9.20;99.90
8539;DHT22;4307;53.868;11.680;2022-12-20T11:29:01;9.30;99.90
8539;DHT22;4307;53.868;11.680;2022-12-20T11:31:40;9.30;99.90
8539;DHT22;4307;53.868;11.680;2022-12-20T11:34:21;9.40;99.90
8539;DHT22;4307;53.868;11.680;2022-12-20T11:37:03;9.50;99.90
8539;DHT22;4307;53.868;11.680;2022-12-20T11:39:38;9.50;99.90
8539;DHT22;4307;53.868;11.680;2022-12-20T11:42:15;9.50;99.90
8539;DHT22;4307;53.868;11.680;2022-12-20T11:44:52;9.50;99.90
8539;DHT22;4307;53.868;11.680;2022-12-20T11:47:38;9.50;99.90
8539;DHT22;4307;53.868;11.680;2022-12-20T11:50:19;9.50;99.90
8539;DHT22;4307;53.868;11.680;2022-12-20T11:52:54;9.60;99.90
8539;DHT22;4307;53.868;11.680;2022-12-20T11:55:26;9.60;99.90
8539;DHT22;4307;53.868;11.680;2022-12-20T11:57:58;9.50;99.90
8539;DHT22;4307;53.868;11.680;2022-12-20T12:00:27;9.60;99.90
8539;DHT22;4307;53.868;11.680;2022-12-20T12:02:59;9.60;99.90
8539;DHT22;4307;53.868;11.680;2022-12-20T12:05:34;9.60;99.90
8539;DHT22;4307;53.868;11.680;2022-12-20T12:08:10;9.70;99.90
8539;DHT22;4307;53.868;11.680;2022-12-20T12:10:40;9.70;99.90
8539;DHT22;4307;53.868;11.680;2022-12-20T12:13:14;9.60;99.90
8539;DHT22;4307;53.868;11.680;2022-12-20T12:15:49;9.70;99.90
8539;DHT22;4307;53.868;11.680;2022-12-20T12:18:23;9.70;99.90
8539;DHT22;4307;53.868;11.680;2022-12-20T12:20:55;9.60;99.90
8539;DHT22;4307;53.868;11.680;2022-12-20T12:23:28;9.70;99.90
8539;DHT22;4307;53.868;11.680;2022-12-20T12:25:58;9.60;99.90
8539;DHT22;4307;53.868;11.680;2022-12-20T12:28:26;9.70;99.90
8539;DHT22;4307;53.868;11.680;2022-12-20T12:30:56;9.70;99.90
8539;DHT22;4307;53.868;11.680;2022-12-20T12:33:27;9.70;99.90
8539;DHT22;4307;53.868;11.680;2022-12-20T12:36:27;9.70;99.90
8539;DHT22;4307;53.868;11.680;2022-12-20T12:39:13;9.60;99.90
8539;DHT22;4307;53.868;11.680;2022-12-20T12:42:22;9.60;99.90
8539;DHT22;4307;53.868;11.680;2022-12-20T12:44:56;9.60;99.90
8539;DHT22;4307;53.868;11.680;2022-12-20T12:47:28;9.60;99.90
8539;DHT22;4307;53.868;11.680;2022-12-20T12:50:02;9.50;99.90
8539;DHT22;4307;53.868;11.680;2022-12-20T12:52:42;9.50;99.90
8539;DHT22;4307;53.868;11.680;2022-12-20T12:55:37;9.60;99.90
8539;DHT22;4307;53.868;11.680;2022-12-20T13:01:09;9.60;99.90
8539;DHT22;4307;53.868;11.680;2022-12-20T13:03:42;9.60;99.90
8539;DHT22;4307;53.868;11.680;2022-12-20T13:06:50;9.60;99.90
8539;DHT22;4307;53.868;11.680;2022-12-20T13:09:35;9.70;99.90
8539;DHT22;4307;53.868;11.680;2022-12-20T13:14:58;9.60;99.90
8539;DHT22;4307;53.868;11.680;2022-12-20T13:17:49;9.70;99.90
8539;DHT22;4307;53.868;11.680;2022-12-20T13:20:21;9.60;99.90
8539;DHT22;4307;53.868;11.680;2022-12-20T13:23:13;9.70;99.90
8539;DHT22;4307;53.868;11.680;2022-12-20T13:25:43;9.50;99.90
8539;DHT22;4307;53.868;11.680;2022-12-20T13:28:42;9.50;99.90
8539;DHT22;4307;53.868;11.680;2022-12-20T13:31:30;9.40;99.90
8539;DHT22;4307;53.868;11.680;2022-12-20T13:33:59;9.40;99.90
8539;DHT22;4307;53.868;11.680;2022-12-20T13:36:35;9.30;99.90
8539;DHT22;4307;53.868;11.680;2022-12-20T13:39:31;9.30;99.90
8539;DHT22;4307;53.868;11.680;2022-12-20T13:42:18;9.20;99.90
8539;DHT22;4307;53.868;11.680;2022-12-20T13:44:49;9.10;99.90
8539;DHT22;4307;53.868;11.680;2022-12-20T13:47:39;9.10;99.90
8539;DHT22;4307;53.868;11.680;2022-12-20T13:50:31;9.00;99.90
8539;DHT22;4307;53.868;11.680;2022-12-20T13:53:00;9.00;99.90
8539;DHT22;4307;53.868;11.680;2022-12-20T13:55:36;9.00;99.90
8539;DHT22;4307;53.868;11.680;2022-12-20T13:58:10;9.00;99.90
8539;DHT22;4307;53.868;11.680;2022-12-20T14:00:38;8.90;99.90
8539;DHT22;4307;53.868;11.680;2022-12-20T14:03:16;8.90;99.90
8539;DHT22;4307;53.868;11.680;2022-12-20T14:05:45;8.90;99.90
8539;DHT22;4307;53.868;11.680;2022-12-20T14:08:14;8.90;99.90
8539;DHT22;4307;53.868;11.680;2022-12-20T14:10:42;9.00;99.90
8539;DHT22;4307;53.868;11.680;2022-12-20T14:13:19;8.90;99.90
8539;DHT22;4307;53.868;11.680;2022-12-20T14:15:45;8.90;99.90
8539;DHT22;4307;53.868;11.680;2022-12-20T14:18:17;8.90;99.90
8539;DHT22;4307;53.868;11.680;2022-12-20T14:20:46;8.80;99.90
8539;DHT22;4307;53.868;11.680;2022-12-20T14:23:16;8.80;99.90
8539;DHT22;4307;53.868;11.680;2022-12-20T14:25:46;8.80;99.90
8539;DHT22;4307;53.868;11.680;2022-12-20T14:28:28;8.70;99.90
8539;DHT22;4307;53.868;11.680;2022-12-20T14:30:57;8.70;99.90
8539;DHT22;4307;53.868;11.680;2022-12-20T14:33:30;8.70;99.90
8539;DHT22;4307;53.868;11.680;2022-12-20T14:36:08;8.70;99.90
8539;DHT22;4307;53.868;11.680;2022-12-20T14:38:35;8.60;99.90
8539;DHT22;4307;53.868;11.680;2022-12-20T14:41:03;8.60;99.90
8539;DHT22;4307;53.868;11.680;2022-12-20T14:43:33;8.60;99.90
8539;DHT22;4307;53.868;11.680;2022-12-20T14:46:22;8.60;99.90
8539;DHT22;4307;53.868;11.680;2022-12-20T14:49:05;8.50;99.90
8539;DHT22;4307;53.868;11.680;2022-12-20T14:51:34;8.50;99.90
8539;DHT22;4307;53.868;11.680;2022-12-20T14:54:01;8.50;99.90
8539;DHT22;4307;53.868;11.680;2022-12-20T14:56:29;8.50;99.90
8539;DHT22;4307;53.868;11.680;2022-12-20T14:59:04;8.50;99.90
8539;DHT22;4307;53.868;11.680;2022-12-20T15:01:32;8.50;99.90
8539;DHT22;4307;53.868;11.680;2022-12-20T15:03:59;8.50;99.90
8539;DHT22;4307;53.868;11.680;2022-12-20T15:06:40;8.50;99.90
8539;DHT22;4307;53.868;11.680;2022-12-20T15:09:08;8.40;99.90
8539;DHT22;4307;53.868;11.680;2022-12-20T15:11:36;8.50;99.90
8539;DHT22;4307;53.868;11.680;2022-12-20T15:14:30;8.40;99.90
8539;DHT22;4307;53.868;11.680;2022-12-20T15:16:58;8.50;99.90
8539;DHT22;4307;53.868;11.680;2022-12-20T15:19:25;8.40;99.90
8539;DHT22;4307;53.868;11.680;2022-12-20T15:21:52;8.40;99.90
8539;DHT22;4307;53.868;11.680;2022-12-20T15:24:22;8.50;99.90
8539;DHT22;4307;53.868;11.680;2022-12-20T15:26:51;8.50;99.90
8539;DHT22;4307;53.868;11.680;2022-12-20T15:29:19;8.50;99.90
8539;DHT22;4307;53.868;11.680;2022-12-20T15:31:47;8.50;99.90
8539;DHT22;4307;53.868;11.680;2022-12-20T15:34:17;8.50;99.90
8539;DHT22;4307;53.868;11.680;2022-12-20T15:36:45;8.50;99.90
8539;DHT22;4307;53.868;11.680;2022-12-20T15:39:12;8.50;99.90
8539;DHT22;4307;53.868;11.680;2022-12-20T15:41:40;8.50;99.90
8539;DHT22;4307;53.868;11.680;2022-12-20T15:44:13;8.50;99.90
8539;DHT22;4307;53.868;11.680;2022-12-20T15:46:40;8.50;99.90
8539;DHT22;4307;53.868;11.680;2022-12-20T15:49:13;8.50;99.90
8539;DHT22;4307;53.868;11.680;2022-12-20T15:51:40;8.50;99.90
8539;DHT22;4307;53.868;11.680;2022-12-20T15:54:16;8.50;99.90
8539;DHT22;4307;53.868;11.680;2022-12-20T15:56:45;8.40;99.90
8539;DHT22;4307;53.868;11.680;2022-12-20T15:59:13;8.50;99.90
8539;DHT22;4307;53.868;11.680;2022-12-20T16:01:40;8.50;99.90
8539;DHT22;4307;53.868;11.680;2022-12-20T16:04:08;8.50;99.90
8539;DHT22;4307;53.868;11.680;2022-12-20T16:06:38;8.50;99.90
8539;DHT22;4307;53.868;11.680;2022-12-20T16:09:05;8.40;99.90
8539;DHT22;4307;53.868;11.680;2022-12-20T16:11:31;8.40;99.90
8539;DHT22;4307;53.868;11.680;2022-12-20T16:13:59;8.40;99.90
8539;DHT22;4307;53.868;11.680;2022-12-20T16:16:28;8.40;99.90
8539;DHT22;4307;53.868;11.680;2022-12-20T16:18:55;8.40;99.90
8539;DHT22;4307;53.868;11.680;2022-12-20T16:21:25;8.40;99.90
8539;DHT22;4307;53.868;11.680;2022-12-20T16:23:52;8.40;99.90
8539;DHT22;4307;53.868;11.680;2022-12-20T16:26:20;8.30;99.90
8539;DHT22;4307;53.868;11.680;2022-12-20T16:28:48;8.30;99.90
8539;DHT22;4307;53.868;11.680;2022-12-20T16:31:21;8.30;99.90
8539;DHT22;4307;53.868;11.680;2022-12-20T16:33:50;8.40;99.90